logo dgac
Miércoles 22 de Mayo del 2019
Buscar por aerodromo o helipuerto
Ingrese nombre de aeródromo, localidad o designador OACI:
METAR del 21-05-2019 a las 21:00 UTC
METAR SCIR 212100Z 20014KT CAVOK 14/08 Q1027
Viento: dirección 200 grados, velocidad 14 nudos
Visibilidad: 10 km o más,
    sin nubes bajo los 5.000 pies o bajo del MSA (Mínimo de Seguridad del Aeródromo),
    sin cumulonimbus, y sin fenómenos de tiempo significativo en el aeródromo o alrededores
Temperatura: 14 °C
Rocío: 8 °C
Humedad_relativa: 67%
Presión: 1027 hPa
METAR del 21-05-2019 a las 20:00 UTC
METAR SCIR 212000Z 20013KT CAVOK 14/08 Q1027
Viento: dirección 200 grados, velocidad 13 nudos
Visibilidad: 10 km o más,
    sin nubes bajo los 5.000 pies o bajo del MSA (Mínimo de Seguridad del Aeródromo),
    sin cumulonimbus, y sin fenómenos de tiempo significativo en el aeródromo o alrededores
Temperatura: 14 °C
Rocío: 8 °C
Humedad_relativa: 67%
Presión: 1027 hPa
METAR del 21-05-2019 a las 19:00 UTC
METAR SCIR 211900Z 20014KT CAVOK 14/08 Q1028
Viento: dirección 200 grados, velocidad 14 nudos
Visibilidad: 10 km o más,
    sin nubes bajo los 5.000 pies o bajo del MSA (Mínimo de Seguridad del Aeródromo),
    sin cumulonimbus, y sin fenómenos de tiempo significativo en el aeródromo o alrededores
Temperatura: 14 °C
Rocío: 8 °C
Humedad_relativa: 67%
Presión: 1028 hPa
METAR del 21-05-2019 a las 18:00 UTC
METAR SCIR 211800Z 20012KT 9999 SCT033 14/08 Q1028
Viento: dirección 200 grados, velocidad 12 nudos
Visibilidad: 10 km o más
Nubes: Nubosidad parcial a 3300 pies sobre el nivel del aeródromo
Temperatura: 14 °C
Rocío: 8 °C
Humedad_relativa: 67%
Presión: 1028 hPa
METAR del 21-05-2019 a las 18:00 UTC
METAR SCIR 211800Z 20012KT 9999 SCT033 14/08 Q1028
Viento: dirección 200 grados, velocidad 12 nudos
Visibilidad: 10 km o más
Nubes: Nubosidad parcial a 3300 pies sobre el nivel del aeródromo
Temperatura: 14 °C
Rocío: 8 °C
Humedad_relativa: 67%
Presión: 1028 hPa
METAR del 21-05-2019 a las 17:00 UTC
METAR SCIR 211700Z 21010KT 9999 SCT033 14/07 Q1029
Viento: dirección 210 grados, velocidad 10 nudos
Visibilidad: 10 km o más
Nubes: Nubosidad parcial a 3300 pies sobre el nivel del aeródromo
Temperatura: 14 °C
Rocío: 7 °C
Humedad_relativa: 63%
Presión: 1029 hPa
METAR del 21-05-2019 a las 17:00 UTC
METAR SCIR 211700Z 21010KT 9999 SCT033 14/07 Q1029
Viento: dirección 210 grados, velocidad 10 nudos
Visibilidad: 10 km o más
Nubes: Nubosidad parcial a 3300 pies sobre el nivel del aeródromo
Temperatura: 14 °C
Rocío: 7 °C
Humedad_relativa: 63%
Presión: 1029 hPa
METAR del 21-05-2019 a las 16:00 UTC
METAR SCIR 211600Z 22013KT 9999 BKN033 14/07 Q1029
Viento: dirección 220 grados, velocidad 13 nudos
Visibilidad: 10 km o más
Nubes: Nublado a 3300 pies sobre el nivel del aeródromo
Temperatura: 14 °C
Rocío: 7 °C
Humedad_relativa: 63%
Presión: 1029 hPa
METAR del 21-05-2019 a las 15:00 UTC
METAR SCIR 211500Z 22014KT 9999 BKN033 13/07 Q1029
Viento: dirección 220 grados, velocidad 14 nudos
Visibilidad: 10 km o más
Nubes: Nublado a 3300 pies sobre el nivel del aeródromo
Temperatura: 13 °C
Rocío: 7 °C
Humedad_relativa: 67%
Presión: 1029 hPa
METAR del 21-05-2019 a las 14:00 UTC
METAR SCIR 211400Z 22017KT 9999 SCT033 13/07 Q1029
Viento: dirección 220 grados, velocidad 17 nudos
Visibilidad: 10 km o más
Nubes: Nubosidad parcial a 3300 pies sobre el nivel del aeródromo
Temperatura: 13 °C
Rocío: 7 °C
Humedad_relativa: 67%
Presión: 1029 hPa